Flight Track Log - Related Links

Times and Time Zones

All times are in EDT time to prevent confusion due to time zone crossing. See the N770NC flight status page for this flight to view local times or setup timezone preferences in your user account.

Time Position Orientation Groundspeed Altitude Reporting Facility
EDT Latitude Longitude Course Direction KTS MPH feet Rate Location/Type
Sat 08:15:00 AM 33.5747 -82.0790 337° Northwest  Level FlightAware Approximate
Sat 08:15:32 AM 33.3942 -82.1828 242° Southwest 268 308 6,600  Level Atlanta Center
Sat 08:16:00 AM 33.6436 -82.1218 337° Northwest  Level FlightAware Approximate
Sat 08:16:32 AM 33.3808 -82.2775 260° West 283 326 9,100  Level Atlanta Center
Sat 08:17:00 AM 33.6936 -82.1691 248° West  Level FlightAware Approximate
Sat 08:17:32 AM 33.3717 -82.3772 264° West 307 353 11,200  Level Atlanta Center
Sat 08:18:00 AM 33.6573 -82.2521 239° Southwest  Level FlightAware Approximate
Sat 08:18:32 AM 33.3567 -82.4919 261° West 336 387 12,900  Level Atlanta Center
Sat 08:19:00 AM 33.6170 -82.3327 239° Southwest  Level FlightAware Approximate
Sat 08:19:32 AM 33.3414 -82.6114 261° West 358 412 15,700  Level Atlanta Center
Sat 08:20:00 AM 33.5788 -82.4146 242° Southwest  Level FlightAware Approximate
Sat 08:20:32 AM 33.3281 -82.7361 263° West 358 412 17,600  Level Atlanta Center
Sat 08:21:32 AM 33.3147 -82.8456 262° West 358 412 19,300 1,600 Climbing Atlanta Center
Sat 08:22:32 AM 33.2972 -82.9875 262° West 386 444 20,800 1,350 Climbing Atlanta Center
Sat 08:23:32 AM 33.2647 -83.1172 253° West 399 459 22,000 350 Climbing Atlanta Center
Sat 08:24:32 AM 33.2136 -83.2492 245° Southwest 426 490 21,500 -1,150 Descending Atlanta Center
Sat 08:25:32 AM 33.1600 -83.3786 244° Southwest 442 509 19,700 -2,250 Descending Atlanta Center
Sat 08:26:32 AM 33.1106 -83.5106 246° West 436 502 17,000 -2,750 Descending Atlanta Center
Sat 08:27:32 AM 33.0756 -83.6322 251° West 416 479 14,200 -1,500 Descending Atlanta Center
Sat 08:28:32 AM 33.1156 -83.7239 298° West 339 390 14,000 -106 Descending Atlanta Center
Sat 08:29:25 AM 33.2000 -83.8000 323° Northwest 368 423 14,000  Level Atlanta TRACON
Sat 08:30:25 AM 33.2667 -83.8833 314° West 377 434 14,000  Level Atlanta TRACON
Sat 08:31:19 AM 33.3333 -83.9667 314° West 385 443 14,000 -368 Level Atlanta TRACON
Sat 08:32:19 AM 33.4167 -84.0667 315° West 395 455 13,300 -850 Descending Atlanta TRACON
Sat 08:33:19 AM 33.4667 -84.1667 301° West 378 435 12,300 -619 Descending Atlanta TRACON
Sat 08:34:25 AM 33.5167 -84.2667 301° West 294 338 12,000 -524 Descending Atlanta TRACON
Sat 08:35:25 AM 33.5333 -84.3500 284° West 250 288 11,200 -1,053 Descending Atlanta TRACON
Sat 08:36:19 AM 33.5333 -84.4167 270° West 248 285 10,000 -1,789 Descending Atlanta TRACON
Sat 08:37:19 AM 33.5333 -84.5000 270° West 234 269 7,800 -2,158 Descending Atlanta TRACON
Sat 08:38:13 AM 33.5333 -84.5667 270° West 228 262 5,900 -2,111 Descending Atlanta TRACON

Login

Don't have an account? Register now (free) for customized features, flight alerts, and more!